RORY(METAR)
12/04 19:00
METAR RORY 041000Z AUTO 35006KT 9999 SCT016 BKN024 23/21 Q1016 RMK
A3003=
戻る
トップページへ戻る
IMOC Co,.Ltd.